sensor_id;sensor_type;location;lat;lon;timestamp;P1;durP1;ratioP1;P2;durP2;ratioP2
30062;SDS011;16889;67.864;24.990;2023-03-31T00:04:36;2.28;;;1.15;;
30062;SDS011;16889;67.864;24.990;2023-03-31T00:09:24;3.55;;;1.10;;
30062;SDS011;16889;67.864;24.990;2023-03-31T00:14:10;1.50;;;1.00;;
30062;SDS011;16889;67.864;24.990;2023-03-31T00:18:56;2.10;;;1.10;;
30062;SDS011;16889;67.864;24.990;2023-03-31T00:23:42;2.85;;;1.10;;
30062;SDS011;16889;67.864;24.990;2023-03-31T00:28:28;2.85;;;1.27;;
30062;SDS011;16889;67.864;24.990;2023-03-31T00:33:15;2.65;;;1.02;;
30062;SDS011;16889;67.864;24.990;2023-03-31T00:38:01;3.67;;;1.00;;
30062;SDS011;16889;67.864;24.990;2023-03-31T00:42:47;4.68;;;1.23;;
30062;SDS011;16889;67.864;24.990;2023-03-31T00:47:33;6.40;;;1.30;;
30062;SDS011;16889;67.864;24.990;2023-03-31T00:52:23;4.57;;;1.30;;
30062;SDS011;16889;67.864;24.990;2023-03-31T00:57:22;4.15;;;1.10;;
30062;SDS011;16889;67.864;24.990;2023-03-31T01:02:12;5.32;;;1.40;;
30062;SDS011;16889;67.864;24.990;2023-03-31T01:07:08;4.90;;;1.23;;
30062;SDS011;16889;67.864;24.990;2023-03-31T01:12:05;5.72;;;1.10;;
30062;SDS011;16889;67.864;24.990;2023-03-31T01:16:54;4.65;;;1.20;;
30062;SDS011;16889;67.864;24.990;2023-03-31T01:46:27;2.17;;;1.02;;
30062;SDS011;16889;67.864;24.990;2023-03-31T01:56:22;5.30;;;0.90;;
30062;SDS011;16889;67.864;24.990;2023-03-31T02:01:34;4.78;;;1.15;;
30062;SDS011;16889;67.864;24.990;2023-03-31T02:06:36;3.70;;;0.98;;
30062;SDS011;16889;67.864;24.990;2023-03-31T02:11:27;4.53;;;1.30;;
30062;SDS011;16889;67.864;24.990;2023-03-31T02:16:17;3.92;;;1.00;;
30062;SDS011;16889;67.864;24.990;2023-03-31T02:21:08;4.28;;;1.10;;
30062;SDS011;16889;67.864;24.990;2023-03-31T02:26:03;3.65;;;1.20;;
30062;SDS011;16889;67.864;24.990;2023-03-31T02:36:02;10.75;;;1.80;;
30062;SDS011;16889;67.864;24.990;2023-03-31T02:40:50;6.70;;;1.90;;
30062;SDS011;16889;67.864;24.990;2023-03-31T02:45:38;3.33;;;1.20;;
30062;SDS011;16889;67.864;24.990;2023-03-31T02:50:31;5.82;;;1.50;;
30062;SDS011;16889;67.864;24.990;2023-03-31T02:55:30;2.53;;;1.20;;
30062;SDS011;16889;67.864;24.990;2023-03-31T03:15:54;3.05;;;1.23;;
30062;SDS011;16889;67.864;24.990;2023-03-31T03:21:05;6.32;;;1.50;;
30062;SDS011;16889;67.864;24.990;2023-03-31T03:25:51;4.55;;;1.60;;
30062;SDS011;16889;67.864;24.990;2023-03-31T03:30:37;4.20;;;1.40;;
30062;SDS011;16889;67.864;24.990;2023-03-31T03:35:24;4.53;;;1.17;;
30062;SDS011;16889;67.864;24.990;2023-03-31T03:40:10;9.33;;;2.97;;
30062;SDS011;16889;67.864;24.990;2023-03-31T03:44:56;2.10;;;1.10;;
30062;SDS011;16889;67.864;24.990;2023-03-31T03:49:42;3.05;;;1.20;;
30062;SDS011;16889;67.864;24.990;2023-03-31T03:54:28;2.30;;;1.30;;
30062;SDS011;16889;67.864;24.990;2023-03-31T03:59:14;3.37;;;1.60;;
30062;SDS011;16889;67.864;24.990;2023-03-31T04:04:00;2.15;;;1.23;;
30062;SDS011;16889;67.864;24.990;2023-03-31T04:08:47;4.13;;;1.33;;
30062;SDS011;16889;67.864;24.990;2023-03-31T04:13:33;8.38;;;1.33;;
30062;SDS011;16889;67.864;24.990;2023-03-31T04:18:19;4.57;;;1.45;;
30062;SDS011;16889;67.864;24.990;2023-03-31T04:23:07;4.82;;;1.23;;
30062;SDS011;16889;67.864;24.990;2023-03-31T04:27:54;4.67;;;1.37;;
30062;SDS011;16889;67.864;24.990;2023-03-31T04:32:40;4.50;;;1.50;;
30062;SDS011;16889;67.864;24.990;2023-03-31T04:37:25;3.58;;;1.23;;
30062;SDS011;16889;67.864;24.990;2023-03-31T04:42:12;6.00;;;1.60;;
30062;SDS011;16889;67.864;24.990;2023-03-31T04:46:59;11.75;;;1.92;;
30062;SDS011;16889;67.864;24.990;2023-03-31T04:51:47;3.95;;;1.35;;
30062;SDS011;16889;67.864;24.990;2023-03-31T04:56:33;3.20;;;1.40;;
30062;SDS011;16889;67.864;24.990;2023-03-31T05:01:19;4.03;;;1.40;;
30062;SDS011;16889;67.864;24.990;2023-03-31T05:06:05;4.15;;;1.10;;
30062;SDS011;16889;67.864;24.990;2023-03-31T05:10:51;2.47;;;1.43;;
30062;SDS011;16889;67.864;24.990;2023-03-31T05:15:38;4.97;;;1.30;;
30062;SDS011;16889;67.864;24.990;2023-03-31T05:20:24;2.45;;;1.55;;
30062;SDS011;16889;67.864;24.990;2023-03-31T05:25:11;3.65;;;1.40;;
30062;SDS011;16889;67.864;24.990;2023-03-31T05:30:04;3.15;;;1.40;;
30062;SDS011;16889;67.864;24.990;2023-03-31T05:34:52;4.03;;;1.38;;
30062;SDS011;16889;67.864;24.990;2023-03-31T05:39:41;3.58;;;1.40;;
30062;SDS011;16889;67.864;24.990;2023-03-31T05:44:27;4.03;;;1.40;;
30062;SDS011;16889;67.864;24.990;2023-03-31T05:49:13;8.45;;;1.30;;
30062;SDS011;16889;67.864;24.990;2023-03-31T05:54:01;10.70;;;1.30;;
30062;SDS011;16889;67.864;24.990;2023-03-31T05:58:47;2.00;;;0.90;;
30062;SDS011;16889;67.864;24.990;2023-03-31T06:03:33;3.15;;;1.02;;
30062;SDS011;16889;67.864;24.990;2023-03-31T06:08:20;4.20;;;1.00;;
30062;SDS011;16889;67.864;24.990;2023-03-31T06:13:06;2.10;;;1.00;;
30062;SDS011;16889;67.864;24.990;2023-03-31T06:17:52;5.10;;;1.42;;
30062;SDS011;16889;67.864;24.990;2023-03-31T06:22:38;2.35;;;1.00;;
30062;SDS011;16889;67.864;24.990;2023-03-31T06:27:24;1.73;;;1.00;;
30062;SDS011;16889;67.864;24.990;2023-03-31T06:32:10;1.95;;;1.08;;
30062;SDS011;16889;67.864;24.990;2023-03-31T06:36:56;3.33;;;1.10;;
30062;SDS011;16889;67.864;24.990;2023-03-31T06:41:42;2.30;;;1.20;;
30062;SDS011;16889;67.864;24.990;2023-03-31T06:46:28;3.38;;;1.20;;
30062;SDS011;16889;67.864;24.990;2023-03-31T06:51:14;2.03;;;1.20;;
30062;SDS011;16889;67.864;24.990;2023-03-31T06:56:00;4.93;;;1.23;;
30062;SDS011;16889;67.864;24.990;2023-03-31T07:00:47;2.63;;;1.27;;
30062;SDS011;16889;67.864;24.990;2023-03-31T07:05:34;2.55;;;1.00;;
30062;SDS011;16889;67.864;24.990;2023-03-31T07:10:20;2.10;;;0.93;;
30062;SDS011;16889;67.864;24.990;2023-03-31T07:15:07;1.00;;;0.63;;
30062;SDS011;16889;67.864;24.990;2023-03-31T07:19:53;1.65;;;0.88;;
30062;SDS011;16889;67.864;24.990;2023-03-31T07:24:39;1.00;;;0.80;;
30062;SDS011;16889;67.864;24.990;2023-03-31T07:29:25;1.52;;;0.80;;
30062;SDS011;16889;67.864;24.990;2023-03-31T07:34:11;0.93;;;0.68;;
30062;SDS011;16889;67.864;24.990;2023-03-31T07:38:57;1.80;;;0.70;;
30062;SDS011;16889;67.864;24.990;2023-03-31T07:43:43;2.45;;;1.08;;
30062;SDS011;16889;67.864;24.990;2023-03-31T07:48:30;2.67;;;1.07;;
30062;SDS011;16889;67.864;24.990;2023-03-31T07:53:16;1.30;;;1.00;;
30062;SDS011;16889;67.864;24.990;2023-03-31T07:58:02;4.97;;;0.90;;
30062;SDS011;16889;67.864;24.990;2023-03-31T08:02:48;0.95;;;0.80;;
30062;SDS011;16889;67.864;24.990;2023-03-31T08:07:35;1.02;;;0.70;;
30062;SDS011;16889;67.864;24.990;2023-03-31T08:12:22;1.80;;;0.80;;
30062;SDS011;16889;67.864;24.990;2023-03-31T08:17:09;1.45;;;0.80;;
30062;SDS011;16889;67.864;24.990;2023-03-31T08:21:55;1.13;;;0.73;;
30062;SDS011;16889;67.864;24.990;2023-03-31T08:26:41;3.58;;;0.80;;
30062;SDS011;16889;67.864;24.990;2023-03-31T08:31:27;1.13;;;0.80;;
30062;SDS011;16889;67.864;24.990;2023-03-31T08:36:14;1.95;;;1.02;;
30062;SDS011;16889;67.864;24.990;2023-03-31T08:41:01;1.35;;;0.70;;
30062;SDS011;16889;67.864;24.990;2023-03-31T08:45:49;0.90;;;0.80;;
30062;SDS011;16889;67.864;24.990;2023-03-31T08:50:35;1.90;;;0.90;;
30062;SDS011;16889;67.864;24.990;2023-03-31T08:55:28;4.40;;;0.80;;
30062;SDS011;16889;67.864;24.990;2023-03-31T09:01:10;1.50;;;0.90;;
30062;SDS011;16889;67.864;24.990;2023-03-31T09:06:13;2.00;;;0.70;;
30062;SDS011;16889;67.864;24.990;2023-03-31T09:26:19;1.50;;;0.85;;
30062;SDS011;16889;67.864;24.990;2023-03-31T09:31:22;3.20;;;1.10;;
30062;SDS011;16889;67.864;24.990;2023-03-31T09:36:15;1.17;;;0.80;;
30062;SDS011;16889;67.864;24.990;2023-03-31T09:41:02;2.85;;;1.15;;
30062;SDS011;16889;67.864;24.990;2023-03-31T09:45:49;2.22;;;1.02;;
30062;SDS011;16889;67.864;24.990;2023-03-31T09:50:39;1.35;;;0.90;;
30062;SDS011;16889;67.864;24.990;2023-03-31T09:55:50;1.40;;;1.00;;
30062;SDS011;16889;67.864;24.990;2023-03-31T10:00:39;2.92;;;1.17;;
30062;SDS011;16889;67.864;24.990;2023-03-31T10:05:35;1.45;;;0.98;;
30062;SDS011;16889;67.864;24.990;2023-03-31T10:10:30;1.58;;;1.00;;
30062;SDS011;16889;67.864;24.990;2023-03-31T10:15:22;3.35;;;0.80;;
30062;SDS011;16889;67.864;24.990;2023-03-31T10:20:26;1.42;;;0.90;;
30062;SDS011;16889;67.864;24.990;2023-03-31T10:25:23;1.85;;;1.00;;
30062;SDS011;16889;67.864;24.990;2023-03-31T10:30:16;1.40;;;0.70;;
30062;SDS011;16889;67.864;24.990;2023-03-31T10:35:53;1.67;;;1.00;;
30062;SDS011;16889;67.864;24.990;2023-03-31T10:40:20;1.55;;;0.90;;
30062;SDS011;16889;67.864;24.990;2023-03-31T10:45:09;1.20;;;0.88;;
30062;SDS011;16889;67.864;24.990;2023-03-31T10:50:16;2.13;;;1.05;;
30062;SDS011;16889;67.864;24.990;2023-03-31T10:55:02;1.20;;;0.93;;
30062;SDS011;16889;67.864;24.990;2023-03-31T11:00:11;1.17;;;0.75;;
30062;SDS011;16889;67.864;24.990;2023-03-31T11:15:44;1.55;;;0.80;;
30062;SDS011;16889;67.864;24.990;2023-03-31T11:31:23;0.95;;;0.70;;
30062;SDS011;16889;67.864;24.990;2023-03-31T11:41:08;1.20;;;0.80;;
30062;SDS011;16889;67.864;24.990;2023-03-31T11:46:09;1.00;;;0.77;;
30062;SDS011;16889;67.864;24.990;2023-03-31T11:51:20;0.80;;;0.70;;
30062;SDS011;16889;67.864;24.990;2023-03-31T11:56:11;0.73;;;0.60;;
30062;SDS011;16889;67.864;24.990;2023-03-31T12:06:23;0.90;;;0.70;;
30062;SDS011;16889;67.864;24.990;2023-03-31T12:11:21;1.35;;;0.70;;
30062;SDS011;16889;67.864;24.990;2023-03-31T12:21:07;0.68;;;0.68;;
30062;SDS011;16889;67.864;24.990;2023-03-31T12:30:55;0.70;;;0.60;;
30062;SDS011;16889;67.864;24.990;2023-03-31T12:40:58;1.00;;;0.82;;
30062;SDS011;16889;67.864;24.990;2023-03-31T13:06:59;1.85;;;1.10;;
30062;SDS011;16889;67.864;24.990;2023-03-31T13:11:45;1.08;;;0.98;;
30062;SDS011;16889;67.864;24.990;2023-03-31T13:16:34;2.63;;;1.10;;
30062;SDS011;16889;67.864;24.990;2023-03-31T13:21:21;0.98;;;0.88;;
30062;SDS011;16889;67.864;24.990;2023-03-31T13:26:32;1.58;;;1.00;;
30062;SDS011;16889;67.864;24.990;2023-03-31T13:31:17;3.30;;;1.17;;
30062;SDS011;16889;67.864;24.990;2023-03-31T13:36:14;2.38;;;1.23;;
30062;SDS011;16889;67.864;24.990;2023-03-31T14:06:46;5.50;;;0.40;;
30062;SDS011;16889;67.864;24.990;2023-03-31T14:11:39;1.35;;;0.52;;
30062;SDS011;16889;67.864;24.990;2023-03-31T14:16:30;5.10;;;0.63;;
30062;SDS011;16889;67.864;24.990;2023-03-31T14:31:48;0.30;;;0.30;;
30062;SDS011;16889;67.864;24.990;2023-03-31T14:41:52;0.63;;;0.40;;
30062;SDS011;16889;67.864;24.990;2023-03-31T14:46:42;0.70;;;0.30;;
30062;SDS011;16889;67.864;24.990;2023-03-31T14:51:28;1.20;;;0.45;;
30062;SDS011;16889;67.864;24.990;2023-03-31T14:56:15;0.30;;;0.30;;
30062;SDS011;16889;67.864;24.990;2023-03-31T15:01:06;1.13;;;0.30;;
30062;SDS011;16889;67.864;24.990;2023-03-31T15:05:55;1.23;;;0.55;;
30062;SDS011;16889;67.864;24.990;2023-03-31T15:10:44;1.20;;;0.45;;
30062;SDS011;16889;67.864;24.990;2023-03-31T15:15:35;0.55;;;0.40;;
30062;SDS011;16889;67.864;24.990;2023-03-31T15:20:26;3.22;;;0.50;;
30062;SDS011;16889;67.864;24.990;2023-03-31T15:25:15;2.25;;;0.90;;
30062;SDS011;16889;67.864;24.990;2023-03-31T15:30:04;3.03;;;0.53;;
30062;SDS011;16889;67.864;24.990;2023-03-31T15:34:52;5.38;;;0.60;;
30062;SDS011;16889;67.864;24.990;2023-03-31T15:39:42;3.60;;;0.70;;
30062;SDS011;16889;67.864;24.990;2023-03-31T15:49:20;5.18;;;0.80;;
30062;SDS011;16889;67.864;24.990;2023-03-31T15:59:21;4.13;;;0.70;;
30062;SDS011;16889;67.864;24.990;2023-03-31T16:04:08;3.95;;;0.60;;
30062;SDS011;16889;67.864;24.990;2023-03-31T16:08:58;4.63;;;0.60;;
30062;SDS011;16889;67.864;24.990;2023-03-31T16:13:51;1.58;;;0.77;;
30062;SDS011;16889;67.864;24.990;2023-03-31T16:18:48;2.97;;;0.70;;
30062;SDS011;16889;67.864;24.990;2023-03-31T16:23:37;2.20;;;0.60;;
30062;SDS011;16889;67.864;24.990;2023-03-31T16:28:26;2.30;;;0.57;;
30062;SDS011;16889;67.864;24.990;2023-03-31T16:33:16;1.98;;;0.60;;
30062;SDS011;16889;67.864;24.990;2023-03-31T16:38:04;5.78;;;1.00;;
30062;SDS011;16889;67.864;24.990;2023-03-31T16:43:05;3.95;;;0.70;;
30062;SDS011;16889;67.864;24.990;2023-03-31T16:48:01;3.80;;;0.60;;
30062;SDS011;16889;67.864;24.990;2023-03-31T16:52:47;5.55;;;0.95;;
30062;SDS011;16889;67.864;24.990;2023-03-31T16:57:34;4.57;;;1.00;;
30062;SDS011;16889;67.864;24.990;2023-03-31T17:02:20;2.92;;;0.70;;
30062;SDS011;16889;67.864;24.990;2023-03-31T17:07:06;3.88;;;1.13;;
30062;SDS011;16889;67.864;24.990;2023-03-31T17:11:52;3.03;;;0.60;;
30062;SDS011;16889;67.864;24.990;2023-03-31T17:16:38;1.67;;;0.60;;
30062;SDS011;16889;67.864;24.990;2023-03-31T17:21:24;6.07;;;0.65;;
30062;SDS011;16889;67.864;24.990;2023-03-31T17:26:12;1.23;;;0.57;;
30062;SDS011;16889;67.864;24.990;2023-03-31T17:30:58;3.33;;;0.50;;
30062;SDS011;16889;67.864;24.990;2023-03-31T17:35:44;1.50;;;0.40;;
30062;SDS011;16889;67.864;24.990;2023-03-31T17:40:30;2.88;;;0.50;;
30062;SDS011;16889;67.864;24.990;2023-03-31T17:45:18;2.10;;;0.55;;
30062;SDS011;16889;67.864;24.990;2023-03-31T17:50:04;2.67;;;0.50;;
30062;SDS011;16889;67.864;24.990;2023-03-31T17:54:52;1.55;;;0.50;;
30062;SDS011;16889;67.864;24.990;2023-03-31T17:59:40;4.70;;;1.00;;
30062;SDS011;16889;67.864;24.990;2023-03-31T18:04:26;3.05;;;0.50;;
30062;SDS011;16889;67.864;24.990;2023-03-31T18:09:13;0.40;;;0.40;;
30062;SDS011;16889;67.864;24.990;2023-03-31T18:13:59;3.60;;;0.90;;
30062;SDS011;16889;67.864;24.990;2023-03-31T18:18:46;2.30;;;0.85;;
30062;SDS011;16889;67.864;24.990;2023-03-31T18:23:33;3.28;;;0.55;;
30062;SDS011;16889;67.864;24.990;2023-03-31T18:28:20;4.32;;;0.70;;
30062;SDS011;16889;67.864;24.990;2023-03-31T18:33:06;3.95;;;0.70;;
30062;SDS011;16889;67.864;24.990;2023-03-31T18:37:52;4.90;;;0.70;;
30062;SDS011;16889;67.864;24.990;2023-03-31T18:42:38;7.60;;;1.20;;
30062;SDS011;16889;67.864;24.990;2023-03-31T18:47:24;10.20;;;1.25;;
30062;SDS011;16889;67.864;24.990;2023-03-31T18:52:10;6.32;;;1.10;;
30062;SDS011;16889;67.864;24.990;2023-03-31T18:56:56;5.63;;;1.35;;
30062;SDS011;16889;67.864;24.990;2023-03-31T19:01:42;12.38;;;1.52;;
30062;SDS011;16889;67.864;24.990;2023-03-31T19:06:28;10.93;;;1.85;;
30062;SDS011;16889;67.864;24.990;2023-03-31T19:11:14;10.10;;;1.42;;
30062;SDS011;16889;67.864;24.990;2023-03-31T19:16:01;7.00;;;1.63;;
30062;SDS011;16889;67.864;24.990;2023-03-31T19:20:47;10.35;;;1.67;;
30062;SDS011;16889;67.864;24.990;2023-03-31T19:25:34;9.57;;;1.73;;
30062;SDS011;16889;67.864;24.990;2023-03-31T19:30:21;15.00;;;2.47;;
30062;SDS011;16889;67.864;24.990;2023-03-31T19:35:09;11.93;;;2.30;;
30062;SDS011;16889;67.864;24.990;2023-03-31T19:39:55;9.98;;;1.58;;
30062;SDS011;16889;67.864;24.990;2023-03-31T19:44:44;14.35;;;2.58;;
30062;SDS011;16889;67.864;24.990;2023-03-31T19:49:30;14.98;;;1.92;;
30062;SDS011;16889;67.864;24.990;2023-03-31T19:54:16;12.80;;;2.15;;
30062;SDS011;16889;67.864;24.990;2023-03-31T19:59:02;22.80;;;2.42;;
30062;SDS011;16889;67.864;24.990;2023-03-31T20:03:49;16.73;;;2.40;;
30062;SDS011;16889;67.864;24.990;2023-03-31T20:13:25;14.63;;;2.67;;
30062;SDS011;16889;67.864;24.990;2023-03-31T20:18:12;11.17;;;2.13;;
30062;SDS011;16889;67.864;24.990;2023-03-31T20:22:58;21.67;;;3.70;;
30062;SDS011;16889;67.864;24.990;2023-03-31T20:27:44;19.80;;;2.78;;
30062;SDS011;16889;67.864;24.990;2023-03-31T20:32:30;18.13;;;2.42;;
30062;SDS011;16889;67.864;24.990;2023-03-31T20:37:16;16.42;;;2.38;;
30062;SDS011;16889;67.864;24.990;2023-03-31T20:42:02;13.98;;;2.47;;
30062;SDS011;16889;67.864;24.990;2023-03-31T20:46:48;27.27;;;3.08;;
30062;SDS011;16889;67.864;24.990;2023-03-31T20:51:35;17.60;;;2.47;;
30062;SDS011;16889;67.864;24.990;2023-03-31T20:56:25;24.48;;;3.50;;
30062;SDS011;16889;67.864;24.990;2023-03-31T21:01:13;20.38;;;2.35;;
30062;SDS011;16889;67.864;24.990;2023-03-31T21:06:03;23.02;;;2.65;;
30062;SDS011;16889;67.864;24.990;2023-03-31T21:10:51;24.60;;;3.05;;
30062;SDS011;16889;67.864;24.990;2023-03-31T21:15:46;22.08;;;2.85;;
30062;SDS011;16889;67.864;24.990;2023-03-31T21:20:34;20.00;;;3.05;;
30062;SDS011;16889;67.864;24.990;2023-03-31T21:25:20;25.42;;;3.42;;
30062;SDS011;16889;67.864;24.990;2023-03-31T21:30:07;16.60;;;2.70;;
30062;SDS011;16889;67.864;24.990;2023-03-31T21:34:54;27.33;;;3.10;;
30062;SDS011;16889;67.864;24.990;2023-03-31T21:39:40;26.70;;;3.33;;
30062;SDS011;16889;67.864;24.990;2023-03-31T21:44:26;22.00;;;3.30;;
30062;SDS011;16889;67.864;24.990;2023-03-31T21:49:12;31.80;;;3.30;;
30062;SDS011;16889;67.864;24.990;2023-03-31T21:53:58;25.95;;;3.17;;
30062;SDS011;16889;67.864;24.990;2023-03-31T21:58:44;20.73;;;2.75;;
30062;SDS011;16889;67.864;24.990;2023-03-31T22:03:31;23.83;;;3.13;;
30062;SDS011;16889;67.864;24.990;2023-03-31T22:08:18;19.70;;;2.97;;
30062;SDS011;16889;67.864;24.990;2023-03-31T22:13:06;25.85;;;3.50;;
30062;SDS011;16889;67.864;24.990;2023-03-31T22:17:52;33.88;;;3.35;;
30062;SDS011;16889;67.864;24.990;2023-03-31T22:22:38;30.27;;;3.92;;
30062;SDS011;16889;67.864;24.990;2023-03-31T22:27:24;21.95;;;3.22;;
30062;SDS011;16889;67.864;24.990;2023-03-31T22:32:10;34.53;;;3.53;;
30062;SDS011;16889;67.864;24.990;2023-03-31T22:36:57;15.00;;;2.47;;
30062;SDS011;16889;67.864;24.990;2023-03-31T22:41:43;22.65;;;3.15;;
30062;SDS011;16889;67.864;24.990;2023-03-31T22:46:32;22.98;;;3.30;;
30062;SDS011;16889;67.864;24.990;2023-03-31T22:51:18;17.52;;;2.70;;
30062;SDS011;16889;67.864;24.990;2023-03-31T22:56:05;18.08;;;2.47;;
30062;SDS011;16889;67.864;24.990;2023-03-31T23:00:56;21.52;;;3.17;;
30062;SDS011;16889;67.864;24.990;2023-03-31T23:05:43;20.30;;;3.08;;
30062;SDS011;16889;67.864;24.990;2023-03-31T23:10:29;13.77;;;2.50;;
30062;SDS011;16889;67.864;24.990;2023-03-31T23:15:16;22.33;;;2.72;;
30062;SDS011;16889;67.864;24.990;2023-03-31T23:20:02;20.20;;;3.05;;
30062;SDS011;16889;67.864;24.990;2023-03-31T23:24:50;27.25;;;3.92;;
30062;SDS011;16889;67.864;24.990;2023-03-31T23:29:36;25.90;;;3.30;;
30062;SDS011;16889;67.864;24.990;2023-03-31T23:34:22;22.00;;;2.72;;
30062;SDS011;16889;67.864;24.990;2023-03-31T23:39:08;17.52;;;2.95;;
30062;SDS011;16889;67.864;24.990;2023-03-31T23:43:54;20.25;;;2.80;;
30062;SDS011;16889;67.864;24.990;2023-03-31T23:48:41;24.45;;;3.75;;
30062;SDS011;16889;67.864;24.990;2023-03-31T23:53:27;14.05;;;2.30;;
30062;SDS011;16889;67.864;24.990;2023-03-31T23:58:14;32.22;;;3.25;;
